sensor_id;sensor_type;location;lat;lon;timestamp;temperature;humidity
4245;DHT22;2136;48.502;9.194;2023-05-07T00:00:40;16.10;97.60
4245;DHT22;2136;48.502;9.194;2023-05-07T00:03:09;16.00;97.30
4245;DHT22;2136;48.502;9.194;2023-05-07T00:05:36;16.00;97.20
4245;DHT22;2136;48.502;9.194;2023-05-07T00:08:04;16.00;97.80
4245;DHT22;2136;48.502;9.194;2023-05-07T00:10:31;16.00;97.90
4245;DHT22;2136;48.502;9.194;2023-05-07T00:12:58;16.00;98.10
4245;DHT22;2136;48.502;9.194;2023-05-07T00:15:25;15.90;98.80
4245;DHT22;2136;48.502;9.194;2023-05-07T00:17:53;16.00;99.90
4245;DHT22;2136;48.502;9.194;2023-05-07T00:20:21;16.00;99.60
4245;DHT22;2136;48.502;9.194;2023-05-07T00:22:48;15.90;99.50
4245;DHT22;2136;48.502;9.194;2023-05-07T00:25:15;15.90;99.00
4245;DHT22;2136;48.502;9.194;2023-05-07T00:27:42;15.90;99.20
4245;DHT22;2136;48.502;9.194;2023-05-07T00:30:10;15.90;99.40
4245;DHT22;2136;48.502;9.194;2023-05-07T00:32:37;15.80;99.40
4245;DHT22;2136;48.502;9.194;2023-05-07T00:35:05;15.80;99.70
4245;DHT22;2136;48.502;9.194;2023-05-07T00:37:34;15.80;99.80
4245;DHT22;2136;48.502;9.194;2023-05-07T00:40:01;15.80;99.30
4245;DHT22;2136;48.502;9.194;2023-05-07T00:42:30;15.80;99.90
4245;DHT22;2136;48.502;9.194;2023-05-07T00:44:57;15.70;99.90
4245;DHT22;2136;48.502;9.194;2023-05-07T00:47:25;15.70;99.90
4245;DHT22;2136;48.502;9.194;2023-05-07T00:49:52;15.70;99.90
4245;DHT22;2136;48.502;9.194;2023-05-07T00:52:20;15.70;99.90
4245;DHT22;2136;48.502;9.194;2023-05-07T00:54:48;15.60;99.90
4245;DHT22;2136;48.502;9.194;2023-05-07T00:57:16;15.60;99.90
4245;DHT22;2136;48.502;9.194;2023-05-07T00:59:43;15.60;99.90
4245;DHT22;2136;48.502;9.194;2023-05-07T01:02:10;15.60;99.90
4245;DHT22;2136;48.502;9.194;2023-05-07T01:04:37;15.60;99.90
4245;DHT22;2136;48.502;9.194;2023-05-07T01:07:04;15.50;99.90
4245;DHT22;2136;48.502;9.194;2023-05-07T01:09:32;15.50;99.90
4245;DHT22;2136;48.502;9.194;2023-05-07T01:12:03;15.50;99.90
4245;DHT22;2136;48.502;9.194;2023-05-07T01:14:31;15.50;99.90
4245;DHT22;2136;48.502;9.194;2023-05-07T01:16:58;15.50;99.90
4245;DHT22;2136;48.502;9.194;2023-05-07T01:19:25;15.40;99.90
4245;DHT22;2136;48.502;9.194;2023-05-07T01:22:00;15.40;99.90
4245;DHT22;2136;48.502;9.194;2023-05-07T01:24:30;15.40;99.90
4245;DHT22;2136;48.502;9.194;2023-05-07T01:26:57;15.40;99.90
4245;DHT22;2136;48.502;9.194;2023-05-07T01:29:24;15.30;99.90
4245;DHT22;2136;48.502;9.194;2023-05-07T01:31:52;15.40;99.90
4245;DHT22;2136;48.502;9.194;2023-05-07T01:34:20;15.30;99.90
4245;DHT22;2136;48.502;9.194;2023-05-07T01:36:48;15.30;99.90
4245;DHT22;2136;48.502;9.194;2023-05-07T01:39:15;15.30;99.90
4245;DHT22;2136;48.502;9.194;2023-05-07T01:41:45;15.30;99.90
4245;DHT22;2136;48.502;9.194;2023-05-07T01:44:12;15.20;99.90
4245;DHT22;2136;48.502;9.194;2023-05-07T01:46:39;15.20;99.90
4245;DHT22;2136;48.502;9.194;2023-05-07T01:49:06;15.10;99.90
4245;DHT22;2136;48.502;9.194;2023-05-07T01:51:33;15.10;99.90
4245;DHT22;2136;48.502;9.194;2023-05-07T01:54:00;15.10;99.90
4245;DHT22;2136;48.502;9.194;2023-05-07T01:56:27;15.00;99.90
4245;DHT22;2136;48.502;9.194;2023-05-07T01:58:55;15.00;99.90
4245;DHT22;2136;48.502;9.194;2023-05-07T02:01:22;15.00;99.90
4245;DHT22;2136;48.502;9.194;2023-05-07T02:03:49;14.90;99.90
4245;DHT22;2136;48.502;9.194;2023-05-07T02:06:16;14.90;99.90
4245;DHT22;2136;48.502;9.194;2023-05-07T02:08:43;14.90;99.90
4245;DHT22;2136;48.502;9.194;2023-05-07T02:11:09;14.80;99.90
4245;DHT22;2136;48.502;9.194;2023-05-07T02:13:36;14.80;99.90
4245;DHT22;2136;48.502;9.194;2023-05-07T02:16:05;14.80;99.90
4245;DHT22;2136;48.502;9.194;2023-05-07T02:18:32;14.80;99.90
4245;DHT22;2136;48.502;9.194;2023-05-07T02:20:59;14.70;99.90
4245;DHT22;2136;48.502;9.194;2023-05-07T02:23:26;14.70;99.90
4245;DHT22;2136;48.502;9.194;2023-05-07T02:25:52;14.70;99.90
4245;DHT22;2136;48.502;9.194;2023-05-07T02:28:19;14.70;99.90
4245;DHT22;2136;48.502;9.194;2023-05-07T02:30:46;14.70;99.90
4245;DHT22;2136;48.502;9.194;2023-05-07T02:33:14;14.70;99.90
4245;DHT22;2136;48.502;9.194;2023-05-07T02:35:41;14.60;99.90
4245;DHT22;2136;48.502;9.194;2023-05-07T02:38:08;14.60;99.90
4245;DHT22;2136;48.502;9.194;2023-05-07T02:40:36;14.60;99.90
4245;DHT22;2136;48.502;9.194;2023-05-07T02:43:04;14.50;99.90
4245;DHT22;2136;48.502;9.194;2023-05-07T02:45:31;14.50;99.90
4245;DHT22;2136;48.502;9.194;2023-05-07T02:47:58;14.50;99.90
4245;DHT22;2136;48.502;9.194;2023-05-07T02:50:27;14.40;99.90
4245;DHT22;2136;48.502;9.194;2023-05-07T02:52:54;14.40;99.90
4245;DHT22;2136;48.502;9.194;2023-05-07T02:55:21;14.40;99.90
4245;DHT22;2136;48.502;9.194;2023-05-07T02:57:48;14.30;99.90
4245;DHT22;2136;48.502;9.194;2023-05-07T03:00:16;14.30;99.90
4245;DHT22;2136;48.502;9.194;2023-05-07T03:02:43;14.30;99.90
4245;DHT22;2136;48.502;9.194;2023-05-07T03:05:10;14.20;99.90
4245;DHT22;2136;48.502;9.194;2023-05-07T03:07:39;14.20;99.90
4245;DHT22;2136;48.502;9.194;2023-05-07T03:10:06;14.20;99.90
4245;DHT22;2136;48.502;9.194;2023-05-07T03:12:34;14.10;99.90
4245;DHT22;2136;48.502;9.194;2023-05-07T03:15:01;14.10;99.90
4245;DHT22;2136;48.502;9.194;2023-05-07T03:17:28;14.10;99.90
4245;DHT22;2136;48.502;9.194;2023-05-07T03:19:55;14.10;99.90
4245;DHT22;2136;48.502;9.194;2023-05-07T03:22:21;14.10;99.90
4245;DHT22;2136;48.502;9.194;2023-05-07T03:24:50;14.00;99.90
4245;DHT22;2136;48.502;9.194;2023-05-07T03:27:16;14.00;99.90
4245;DHT22;2136;48.502;9.194;2023-05-07T03:29:43;14.00;99.90
4245;DHT22;2136;48.502;9.194;2023-05-07T03:32:10;14.00;99.90
4245;DHT22;2136;48.502;9.194;2023-05-07T03:34:37;13.90;99.90
4245;DHT22;2136;48.502;9.194;2023-05-07T03:37:04;13.90;99.90
4245;DHT22;2136;48.502;9.194;2023-05-07T03:39:31;13.90;99.90
4245;DHT22;2136;48.502;9.194;2023-05-07T03:41:59;13.90;99.90
4245;DHT22;2136;48.502;9.194;2023-05-07T03:44:26;13.90;99.90
4245;DHT22;2136;48.502;9.194;2023-05-07T03:46:53;13.90;99.90
4245;DHT22;2136;48.502;9.194;2023-05-07T03:49:20;13.90;99.90
4245;DHT22;2136;48.502;9.194;2023-05-07T03:51:47;13.90;99.90
4245;DHT22;2136;48.502;9.194;2023-05-07T03:54:14;13.90;99.90
4245;DHT22;2136;48.502;9.194;2023-05-07T03:56:41;13.90;99.90
4245;DHT22;2136;48.502;9.194;2023-05-07T03:59:09;13.90;99.90
4245;DHT22;2136;48.502;9.194;2023-05-07T04:01:36;13.80;99.90
4245;DHT22;2136;48.502;9.194;2023-05-07T04:04:03;13.90;99.90
4245;DHT22;2136;48.502;9.194;2023-05-07T04:06:30;13.80;99.90
4245;DHT22;2136;48.502;9.194;2023-05-07T04:08:57;13.90;99.90
4245;DHT22;2136;48.502;9.194;2023-05-07T04:11:24;13.80;99.90
4245;DHT22;2136;48.502;9.194;2023-05-07T04:13:50;13.80;99.90
4245;DHT22;2136;48.502;9.194;2023-05-07T04:16:19;13.80;99.90
4245;DHT22;2136;48.502;9.194;2023-05-07T04:18:45;13.80;99.90
4245;DHT22;2136;48.502;9.194;2023-05-07T04:21:16;13.80;99.90
4245;DHT22;2136;48.502;9.194;2023-05-07T04:23:43;13.90;99.90
4245;DHT22;2136;48.502;9.194;2023-05-07T04:26:10;13.90;99.90
4245;DHT22;2136;48.502;9.194;2023-05-07T04:28:37;13.80;99.90
4245;DHT22;2136;48.502;9.194;2023-05-07T04:31:04;13.80;99.90
4245;DHT22;2136;48.502;9.194;2023-05-07T04:33:33;13.90;99.90
4245;DHT22;2136;48.502;9.194;2023-05-07T04:36:01;13.90;99.90
4245;DHT22;2136;48.502;9.194;2023-05-07T04:38:28;13.80;99.90
4245;DHT22;2136;48.502;9.194;2023-05-07T04:40:56;13.80;99.90
4245;DHT22;2136;48.502;9.194;2023-05-07T04:43:23;13.80;99.90
4245;DHT22;2136;48.502;9.194;2023-05-07T04:45:50;13.80;99.90
4245;DHT22;2136;48.502;9.194;2023-05-07T04:48:17;13.90;99.90
4245;DHT22;2136;48.502;9.194;2023-05-07T04:50:48;13.90;99.90
4245;DHT22;2136;48.502;9.194;2023-05-07T04:53:16;13.90;99.90
4245;DHT22;2136;48.502;9.194;2023-05-07T04:55:43;13.90;99.90
4245;DHT22;2136;48.502;9.194;2023-05-07T04:58:10;13.90;99.90
4245;DHT22;2136;48.502;9.194;2023-05-07T05:00:37;13.90;99.90
4245;DHT22;2136;48.502;9.194;2023-05-07T05:03:05;13.90;99.90
4245;DHT22;2136;48.502;9.194;2023-05-07T05:05:32;13.90;99.90
4245;DHT22;2136;48.502;9.194;2023-05-07T05:08:00;13.90;99.90
4245;DHT22;2136;48.502;9.194;2023-05-07T05:10:27;14.00;99.90
4245;DHT22;2136;48.502;9.194;2023-05-07T05:12:54;14.00;99.90
4245;DHT22;2136;48.502;9.194;2023-05-07T05:15:21;14.00;99.90
4245;DHT22;2136;48.502;9.194;2023-05-07T05:17:48;14.10;99.90
4245;DHT22;2136;48.502;9.194;2023-05-07T05:20:15;14.10;99.90
4245;DHT22;2136;48.502;9.194;2023-05-07T05:22:42;14.10;99.90
4245;DHT22;2136;48.502;9.194;2023-05-07T05:25:10;14.20;99.90
4245;DHT22;2136;48.502;9.194;2023-05-07T05:27:37;14.20;99.90
4245;DHT22;2136;48.502;9.194;2023-05-07T05:30:04;14.30;99.90
4245;DHT22;2136;48.502;9.194;2023-05-07T05:32:31;14.30;99.90
4245;DHT22;2136;48.502;9.194;2023-05-07T05:34:58;14.40;99.90
4245;DHT22;2136;48.502;9.194;2023-05-07T05:37:25;14.50;99.90
4245;DHT22;2136;48.502;9.194;2023-05-07T05:39:52;14.60;99.90
4245;DHT22;2136;48.502;9.194;2023-05-07T05:42:21;14.70;99.90
4245;DHT22;2136;48.502;9.194;2023-05-07T05:44:48;14.80;99.90
4245;DHT22;2136;48.502;9.194;2023-05-07T05:47:15;14.90;99.90
4245;DHT22;2136;48.502;9.194;2023-05-07T05:49:42;15.00;99.90
4245;DHT22;2136;48.502;9.194;2023-05-07T05:52:11;15.10;99.90
4245;DHT22;2136;48.502;9.194;2023-05-07T05:54:38;15.20;99.90
4245;DHT22;2136;48.502;9.194;2023-05-07T05:57:05;15.40;99.90
4245;DHT22;2136;48.502;9.194;2023-05-07T05:59:33;15.50;99.30
4245;DHT22;2136;48.502;9.194;2023-05-07T06:02:00;15.50;98.50
4245;DHT22;2136;48.502;9.194;2023-05-07T06:04:27;15.60;98.00
4245;DHT22;2136;48.502;9.194;2023-05-07T06:06:54;15.70;97.20
4245;DHT22;2136;48.502;9.194;2023-05-07T06:09:22;15.70;96.90
4245;DHT22;2136;48.502;9.194;2023-05-07T06:11:49;15.80;96.50
4245;DHT22;2136;48.502;9.194;2023-05-07T06:14:15;15.90;96.10
4245;DHT22;2136;48.502;9.194;2023-05-07T06:16:44;15.90;95.60
4245;DHT22;2136;48.502;9.194;2023-05-07T06:19:10;16.00;95.40
4245;DHT22;2136;48.502;9.194;2023-05-07T06:21:38;16.10;95.30
4245;DHT22;2136;48.502;9.194;2023-05-07T06:24:05;16.20;94.90
4245;DHT22;2136;48.502;9.194;2023-05-07T06:26:32;16.30;94.30
4245;DHT22;2136;48.502;9.194;2023-05-07T06:28:59;16.50;93.80
4245;DHT22;2136;48.502;9.194;2023-05-07T06:31:29;16.60;93.40
4245;DHT22;2136;48.502;9.194;2023-05-07T06:33:58;16.70;93.00
4245;DHT22;2136;48.502;9.194;2023-05-07T06:36:25;16.80;92.50
4245;DHT22;2136;48.502;9.194;2023-05-07T06:38:52;16.90;91.80
4245;DHT22;2136;48.502;9.194;2023-05-07T06:41:19;17.10;91.40
4245;DHT22;2136;48.502;9.194;2023-05-07T06:43:47;17.20;91.00
4245;DHT22;2136;48.502;9.194;2023-05-07T06:46:13;17.30;90.10
4245;DHT22;2136;48.502;9.194;2023-05-07T06:48:41;17.30;87.70
4245;DHT22;2136;48.502;9.194;2023-05-07T06:51:09;17.40;87.10
4245;DHT22;2136;48.502;9.194;2023-05-07T06:53:36;17.50;87.30
4245;DHT22;2136;48.502;9.194;2023-05-07T06:56:02;17.60;87.10
4245;DHT22;2136;48.502;9.194;2023-05-07T06:58:30;17.70;85.90
4245;DHT22;2136;48.502;9.194;2023-05-07T07:00:57;17.90;85.50
4245;DHT22;2136;48.502;9.194;2023-05-07T07:03:23;17.90;84.20
4245;DHT22;2136;48.502;9.194;2023-05-07T07:05:51;18.10;82.90
4245;DHT22;2136;48.502;9.194;2023-05-07T07:08:20;18.10;81.60
4245;DHT22;2136;48.502;9.194;2023-05-07T07:10:47;18.10;80.70
4245;DHT22;2136;48.502;9.194;2023-05-07T07:13:14;18.10;80.50
4245;DHT22;2136;48.502;9.194;2023-05-07T07:15:41;18.10;80.10
4245;DHT22;2136;48.502;9.194;2023-05-07T07:18:09;18.10;80.30
4245;DHT22;2136;48.502;9.194;2023-05-07T07:20:35;18.20;80.10
4245;DHT22;2136;48.502;9.194;2023-05-07T07:23:02;18.30;79.60
4245;DHT22;2136;48.502;9.194;2023-05-07T07:25:30;18.30;78.70
4245;DHT22;2136;48.502;9.194;2023-05-07T07:27:57;18.40;78.50
4245;DHT22;2136;48.502;9.194;2023-05-07T07:30:24;18.40;78.70
4245;DHT22;2136;48.502;9.194;2023-05-07T07:32:51;18.50;79.60
4245;DHT22;2136;48.502;9.194;2023-05-07T07:35:18;18.60;80.30
4245;DHT22;2136;48.502;9.194;2023-05-07T07:37:45;18.70;78.40
4245;DHT22;2136;48.502;9.194;2023-05-07T07:40:12;18.90;77.20
4245;DHT22;2136;48.502;9.194;2023-05-07T07:42:40;19.10;76.90
4245;DHT22;2136;48.502;9.194;2023-05-07T07:45:08;19.30;75.20
4245;DHT22;2136;48.502;9.194;2023-05-07T07:47:35;19.50;74.30
4245;DHT22;2136;48.502;9.194;2023-05-07T07:50:02;19.70;74.30
4245;DHT22;2136;48.502;9.194;2023-05-07T07:52:29;19.90;74.60
4245;DHT22;2136;48.502;9.194;2023-05-07T07:54:56;20.20;75.30
4245;DHT22;2136;48.502;9.194;2023-05-07T07:57:23;20.30;74.40
4245;DHT22;2136;48.502;9.194;2023-05-07T07:59:51;20.40;73.70
4245;DHT22;2136;48.502;9.194;2023-05-07T08:02:18;20.50;72.90
4245;DHT22;2136;48.502;9.194;2023-05-07T08:04:45;20.60;72.70
4245;DHT22;2136;48.502;9.194;2023-05-07T08:07:12;20.70;72.40
4245;DHT22;2136;48.502;9.194;2023-05-07T08:09:40;20.70;72.10
4245;DHT22;2136;48.502;9.194;2023-05-07T08:12:07;20.80;72.00
4245;DHT22;2136;48.502;9.194;2023-05-07T08:14:34;20.80;72.30
4245;DHT22;2136;48.502;9.194;2023-05-07T08:17:03;20.90;73.10
4245;DHT22;2136;48.502;9.194;2023-05-07T08:19:30;20.90;71.70
4245;DHT22;2136;48.502;9.194;2023-05-07T08:21:57;21.00;70.80
4245;DHT22;2136;48.502;9.194;2023-05-07T08:24:24;20.90;70.00
4245;DHT22;2136;48.502;9.194;2023-05-07T08:26:50;21.00;69.90
4245;DHT22;2136;48.502;9.194;2023-05-07T08:29:17;21.00;70.00
4245;DHT22;2136;48.502;9.194;2023-05-07T08:31:44;21.10;70.50
4245;DHT22;2136;48.502;9.194;2023-05-07T08:34:12;21.10;70.50
4245;DHT22;2136;48.502;9.194;2023-05-07T08:36:39;21.10;70.20
4245;DHT22;2136;48.502;9.194;2023-05-07T08:39:07;21.20;69.80
4245;DHT22;2136;48.502;9.194;2023-05-07T08:41:36;21.20;69.10
4245;DHT22;2136;48.502;9.194;2023-05-07T08:44:03;21.20;68.10
4245;DHT22;2136;48.502;9.194;2023-05-07T08:46:33;21.30;67.70
4245;DHT22;2136;48.502;9.194;2023-05-07T08:49:00;21.30;67.50
4245;DHT22;2136;48.502;9.194;2023-05-07T08:51:29;21.30;67.40
4245;DHT22;2136;48.502;9.194;2023-05-07T08:53:56;21.40;68.40
4245;DHT22;2136;48.502;9.194;2023-05-07T08:56:24;21.40;69.10
4245;DHT22;2136;48.502;9.194;2023-05-07T08:58:51;21.50;69.60
4245;DHT22;2136;48.502;9.194;2023-05-07T09:01:22;21.80;71.10
4245;DHT22;2136;48.502;9.194;2023-05-07T09:03:50;22.20;71.30
4245;DHT22;2136;48.502;9.194;2023-05-07T09:06:17;22.50;70.00
4245;DHT22;2136;48.502;9.194;2023-05-07T09:08:50;22.80;68.40
4245;DHT22;2136;48.502;9.194;2023-05-07T09:11:20;23.10;67.80
4245;DHT22;2136;48.502;9.194;2023-05-07T09:13:48;23.30;66.40
4245;DHT22;2136;48.502;9.194;2023-05-07T09:16:15;23.50;64.80
4245;DHT22;2136;48.502;9.194;2023-05-07T09:18:43;23.70;64.10
4245;DHT22;2136;48.502;9.194;2023-05-07T09:21:10;24.10;64.40
4245;DHT22;2136;48.502;9.194;2023-05-07T09:23:38;24.60;63.60
4245;DHT22;2136;48.502;9.194;2023-05-07T09:26:06;24.90;62.50
4245;DHT22;2136;48.502;9.194;2023-05-07T09:28:38;25.20;61.80
4245;DHT22;2136;48.502;9.194;2023-05-07T09:31:05;25.60;60.30
4245;DHT22;2136;48.502;9.194;2023-05-07T09:33:32;26.30;57.60
4245;DHT22;2136;48.502;9.194;2023-05-07T09:36:02;27.10;57.20
4245;DHT22;2136;48.502;9.194;2023-05-07T09:38:30;28.30;54.60
4245;DHT22;2136;48.502;9.194;2023-05-07T09:41:02;29.70;52.90
4245;DHT22;2136;48.502;9.194;2023-05-07T09:43:33;31.40;51.00
4245;DHT22;2136;48.502;9.194;2023-05-07T09:46:03;32.90;47.40
4245;DHT22;2136;48.502;9.194;2023-05-07T09:48:32;34.20;45.60
4245;DHT22;2136;48.502;9.194;2023-05-07T09:51:02;35.50;44.00
4245;DHT22;2136;48.502;9.194;2023-05-07T09:53:30;37.00;39.80
4245;DHT22;2136;48.502;9.194;2023-05-07T09:55:58;38.70;37.80
4245;DHT22;2136;48.502;9.194;2023-05-07T09:58:26;40.20;34.80
4245;DHT22;2136;48.502;9.194;2023-05-07T10:00:54;41.40;34.40
4245;DHT22;2136;48.502;9.194;2023-05-07T10:03:24;42.40;33.00
4245;DHT22;2136;48.502;9.194;2023-05-07T10:05:54;43.30;32.80
4245;DHT22;2136;48.502;9.194;2023-05-07T10:08:21;44.00;31.30
4245;DHT22;2136;48.502;9.194;2023-05-07T10:10:49;44.80;31.10
4245;DHT22;2136;48.502;9.194;2023-05-07T10:13:17;44.80;30.00
4245;DHT22;2136;48.502;9.194;2023-05-07T10:15:45;45.30;30.00
4245;DHT22;2136;48.502;9.194;2023-05-07T10:18:13;45.70;29.50
4245;DHT22;2136;48.502;9.194;2023-05-07T10:20:43;46.30;29.10
4245;DHT22;2136;48.502;9.194;2023-05-07T10:23:15;47.10;29.10
4245;DHT22;2136;48.502;9.194;2023-05-07T10:25:45;47.70;28.30
4245;DHT22;2136;48.502;9.194;2023-05-07T10:28:12;48.20;27.60
4245;DHT22;2136;48.502;9.194;2023-05-07T10:30:52;48.70;27.00
4245;DHT22;2136;48.502;9.194;2023-05-07T10:33:25;49.00;26.30
4245;DHT22;2136;48.502;9.194;2023-05-07T10:35:57;49.30;26.00
4245;DHT22;2136;48.502;9.194;2023-05-07T10:38:24;49.60;26.10
4245;DHT22;2136;48.502;9.194;2023-05-07T10:40:51;50.00;25.90
4245;DHT22;2136;48.502;9.194;2023-05-07T10:43:18;50.10;25.80
4245;DHT22;2136;48.502;9.194;2023-05-07T10:46:09;50.30;25.30
4245;DHT22;2136;48.502;9.194;2023-05-07T10:49:09;50.40;25.00
4245;DHT22;2136;48.502;9.194;2023-05-07T10:51:36;50.40;24.40
4245;DHT22;2136;48.502;9.194;2023-05-07T10:54:20;49.00;24.00
4245;DHT22;2136;48.502;9.194;2023-05-07T10:56:47;46.60;24.00
4245;DHT22;2136;48.502;9.194;2023-05-07T10:59:35;44.20;24.70
4245;DHT22;2136;48.502;9.194;2023-05-07T11:02:07;41.70;26.60
4245;DHT22;2136;48.502;9.194;2023-05-07T11:04:38;39.60;27.70
4245;DHT22;2136;48.502;9.194;2023-05-07T11:07:24;37.70;28.80
4245;DHT22;2136;48.502;9.194;2023-05-07T11:09:55;35.80;31.40
4245;DHT22;2136;48.502;9.194;2023-05-07T11:12:48;34.30;33.40
4245;DHT22;2136;48.502;9.194;2023-05-07T11:15:16;32.90;35.50
4245;DHT22;2136;48.502;9.194;2023-05-07T11:18:00;31.70;37.10
4245;DHT22;2136;48.502;9.194;2023-05-07T11:26:44;29.00;42.40
4245;DHT22;2136;48.502;9.194;2023-05-07T11:29:13;28.30;45.00
4245;DHT22;2136;48.502;9.194;2023-05-07T11:31:40;27.70;45.80
4245;DHT22;2136;48.502;9.194;2023-05-07T11:34:08;27.20;47.40
4245;DHT22;2136;48.502;9.194;2023-05-07T11:36:36;26.70;49.80
4245;DHT22;2136;48.502;9.194;2023-05-07T11:39:23;26.30;50.20
4245;DHT22;2136;48.502;9.194;2023-05-07T11:41:51;25.80;53.50
4245;DHT22;2136;48.502;9.194;2023-05-07T11:44:18;25.50;56.50
4245;DHT22;2136;48.502;9.194;2023-05-07T11:46:45;25.20;57.20
4245;DHT22;2136;48.502;9.194;2023-05-07T11:49:12;25.10;58.10
4245;DHT22;2136;48.502;9.194;2023-05-07T11:51:39;25.10;57.50
4245;DHT22;2136;48.502;9.194;2023-05-07T11:54:08;25.20;58.60
4245;DHT22;2136;48.502;9.194;2023-05-07T11:56:37;25.30;60.70
4245;DHT22;2136;48.502;9.194;2023-05-07T11:59:05;25.30;60.50
4245;DHT22;2136;48.502;9.194;2023-05-07T12:01:35;25.20;60.80
4245;DHT22;2136;48.502;9.194;2023-05-07T12:04:03;25.20;61.70
4245;DHT22;2136;48.502;9.194;2023-05-07T12:06:30;25.10;63.00
4245;DHT22;2136;48.502;9.194;2023-05-07T12:08:57;25.00;63.90
4245;DHT22;2136;48.502;9.194;2023-05-07T12:11:25;25.00;64.90
4245;DHT22;2136;48.502;9.194;2023-05-07T12:13:53;24.80;65.70
4245;DHT22;2136;48.502;9.194;2023-05-07T12:16:22;24.70;64.30
4245;DHT22;2136;48.502;9.194;2023-05-07T12:18:50;24.50;64.80
4245;DHT22;2136;48.502;9.194;2023-05-07T12:21:20;24.30;65.40
4245;DHT22;2136;48.502;9.194;2023-05-07T12:23:47;24.20;65.80
4245;DHT22;2136;48.502;9.194;2023-05-07T12:26:14;23.90;66.10
4245;DHT22;2136;48.502;9.194;2023-05-07T12:28:41;23.70;66.30
4245;DHT22;2136;48.502;9.194;2023-05-07T12:31:08;23.60;67.70
4245;DHT22;2136;48.502;9.194;2023-05-07T12:33:37;23.40;67.90
4245;DHT22;2136;48.502;9.194;2023-05-07T12:36:06;23.20;67.70
4245;DHT22;2136;48.502;9.194;2023-05-07T12:38:35;23.00;68.10
4245;DHT22;2136;48.502;9.194;2023-05-07T12:41:03;22.80;68.90
4245;DHT22;2136;48.502;9.194;2023-05-07T12:43:30;22.70;70.00
4245;DHT22;2136;48.502;9.194;2023-05-07T12:46:00;22.50;71.10
4245;DHT22;2136;48.502;9.194;2023-05-07T12:48:27;22.40;71.90
4245;DHT22;2136;48.502;9.194;2023-05-07T12:50:56;22.30;72.70
4245;DHT22;2136;48.502;9.194;2023-05-07T12:53:25;22.10;73.60
4245;DHT22;2136;48.502;9.194;2023-05-07T12:55:54;22.00;73.70
4245;DHT22;2136;48.502;9.194;2023-05-07T12:58:24;21.90;73.70
4245;DHT22;2136;48.502;9.194;2023-05-07T13:00:52;21.80;74.40
4245;DHT22;2136;48.502;9.194;2023-05-07T13:03:24;21.70;74.10
4245;DHT22;2136;48.502;9.194;2023-05-07T13:05:51;21.60;72.70
4245;DHT22;2136;48.502;9.194;2023-05-07T13:08:28;21.60;71.50
4245;DHT22;2136;48.502;9.194;2023-05-07T13:10:56;21.40;70.60
4245;DHT22;2136;48.502;9.194;2023-05-07T13:13:23;21.30;69.70
4245;DHT22;2136;48.502;9.194;2023-05-07T13:15:50;21.30;70.60
4245;DHT22;2136;48.502;9.194;2023-05-07T13:18:17;21.10;67.90
4245;DHT22;2136;48.502;9.194;2023-05-07T13:20:44;20.90;67.60
4245;DHT22;2136;48.502;9.194;2023-05-07T13:23:11;20.70;67.80
4245;DHT22;2136;48.502;9.194;2023-05-07T13:25:39;20.50;70.00
4245;DHT22;2136;48.502;9.194;2023-05-07T13:28:06;20.30;72.40
4245;DHT22;2136;48.502;9.194;2023-05-07T13:30:33;20.20;75.00
4245;DHT22;2136;48.502;9.194;2023-05-07T13:33:00;19.80;79.90
4245;DHT22;2136;48.502;9.194;2023-05-07T13:35:27;19.70;81.20
4245;DHT22;2136;48.502;9.194;2023-05-07T13:37:54;19.50;85.40
4245;DHT22;2136;48.502;9.194;2023-05-07T13:40:21;19.40;89.90
4245;DHT22;2136;48.502;9.194;2023-05-07T13:42:50;19.20;91.60
4245;DHT22;2136;48.502;9.194;2023-05-07T13:45:17;19.00;93.60
4245;DHT22;2136;48.502;9.194;2023-05-07T13:47:44;18.90;94.90
4245;DHT22;2136;48.502;9.194;2023-05-07T13:50:12;18.80;96.80
4245;DHT22;2136;48.502;9.194;2023-05-07T13:52:41;18.70;98.40
4245;DHT22;2136;48.502;9.194;2023-05-07T13:55:09;18.60;99.50
4245;DHT22;2136;48.502;9.194;2023-05-07T13:57:36;18.60;99.90
4245;DHT22;2136;48.502;9.194;2023-05-07T14:00:06;18.50;99.90
4245;DHT22;2136;48.502;9.194;2023-05-07T14:02:34;18.30;99.90
4245;DHT22;2136;48.502;9.194;2023-05-07T14:05:01;18.30;99.90
4245;DHT22;2136;48.502;9.194;2023-05-07T14:07:28;18.30;99.90
4245;DHT22;2136;48.502;9.194;2023-05-07T14:09:56;18.10;99.90
4245;DHT22;2136;48.502;9.194;2023-05-07T14:12:23;18.10;99.90
4245;DHT22;2136;48.502;9.194;2023-05-07T14:14:50;18.00;99.90
4245;DHT22;2136;48.502;9.194;2023-05-07T14:17:18;17.90;99.90
4245;DHT22;2136;48.502;9.194;2023-05-07T14:19:46;17.90;99.90
4245;DHT22;2136;48.502;9.194;2023-05-07T14:22:13;17.90;99.90
4245;DHT22;2136;48.502;9.194;2023-05-07T14:24:40;17.90;99.90
4245;DHT22;2136;48.502;9.194;2023-05-07T14:27:07;18.00;99.90
4245;DHT22;2136;48.502;9.194;2023-05-07T14:29:34;18.00;99.90
4245;DHT22;2136;48.502;9.194;2023-05-07T14:32:01;18.10;99.90
4245;DHT22;2136;48.502;9.194;2023-05-07T14:34:30;18.10;99.90
4245;DHT22;2136;48.502;9.194;2023-05-07T14:36:58;18.20;99.90
4245;DHT22;2136;48.502;9.194;2023-05-07T14:39:25;18.20;99.90
4245;DHT22;2136;48.502;9.194;2023-05-07T14:41:52;18.30;99.90
4245;DHT22;2136;48.502;9.194;2023-05-07T14:44:20;18.40;99.90
4245;DHT22;2136;48.502;9.194;2023-05-07T14:46:47;18.40;99.90
4245;DHT22;2136;48.502;9.194;2023-05-07T14:49:14;18.50;99.90
4245;DHT22;2136;48.502;9.194;2023-05-07T14:51:44;18.50;99.90
4245;DHT22;2136;48.502;9.194;2023-05-07T14:54:11;18.60;99.90
4245;DHT22;2136;48.502;9.194;2023-05-07T14:56:38;18.70;99.90
4245;DHT22;2136;48.502;9.194;2023-05-07T14:59:06;18.80;99.90
4245;DHT22;2136;48.502;9.194;2023-05-07T15:01:34;18.90;99.90
4245;DHT22;2136;48.502;9.194;2023-05-07T15:04:01;19.10;99.90
4245;DHT22;2136;48.502;9.194;2023-05-07T15:06:29;19.20;99.90
4245;DHT22;2136;48.502;9.194;2023-05-07T15:08:57;19.40;99.90
4245;DHT22;2136;48.502;9.194;2023-05-07T15:11:25;19.50;99.90
4245;DHT22;2136;48.502;9.194;2023-05-07T15:13:52;19.50;99.90
4245;DHT22;2136;48.502;9.194;2023-05-07T15:16:19;19.70;99.90
4245;DHT22;2136;48.502;9.194;2023-05-07T15:18:46;19.80;99.90
4245;DHT22;2136;48.502;9.194;2023-05-07T15:21:13;19.90;99.90
4245;DHT22;2136;48.502;9.194;2023-05-07T15:23:40;20.00;99.90
4245;DHT22;2136;48.502;9.194;2023-05-07T15:26:09;20.00;99.90
4245;DHT22;2136;48.502;9.194;2023-05-07T15:28:36;20.10;99.90
4245;DHT22;2136;48.502;9.194;2023-05-07T15:31:03;20.20;99.80
4245;DHT22;2136;48.502;9.194;2023-05-07T15:33:30;20.20;98.50
4245;DHT22;2136;48.502;9.194;2023-05-07T15:35:57;20.20;97.90
4245;DHT22;2136;48.502;9.194;2023-05-07T15:38:25;20.30;97.70
4245;DHT22;2136;48.502;9.194;2023-05-07T15:40:52;20.30;98.00
4245;DHT22;2136;48.502;9.194;2023-05-07T15:43:21;20.30;98.00
4245;DHT22;2136;48.502;9.194;2023-05-07T15:45:48;20.30;97.80
4245;DHT22;2136;48.502;9.194;2023-05-07T15:48:15;20.20;97.10
4245;DHT22;2136;48.502;9.194;2023-05-07T15:50:42;20.20;96.50
4245;DHT22;2136;48.502;9.194;2023-05-07T15:53:09;20.20;95.60
4245;DHT22;2136;48.502;9.194;2023-05-07T15:55:38;20.10;94.90
4245;DHT22;2136;48.502;9.194;2023-05-07T15:58:05;20.10;95.00
4245;DHT22;2136;48.502;9.194;2023-05-07T16:00:33;20.10;95.40
4245;DHT22;2136;48.502;9.194;2023-05-07T16:03:00;20.10;95.80
4245;DHT22;2136;48.502;9.194;2023-05-07T16:05:27;20.00;95.70
4245;DHT22;2136;48.502;9.194;2023-05-07T16:07:54;20.00;96.10
4245;DHT22;2136;48.502;9.194;2023-05-07T16:10:22;20.00;97.30
4245;DHT22;2136;48.502;9.194;2023-05-07T16:12:49;19.90;98.00